createdAt,value
2022-11-10T00:01:09.077Z,7.53
2022-11-10T00:03:37.183Z,7.05
2022-11-10T00:06:05.128Z,8.20
2022-11-10T00:08:31.805Z,7.45
2022-11-10T00:10:58.765Z,10.48
2022-11-10T00:13:30.849Z,10.50
2022-11-10T00:16:21.805Z,4.00
2022-11-10T00:18:48.844Z,9.02
2022-11-10T00:21:16.620Z,9.98
2022-11-10T00:23:43.397Z,7.80
2022-11-10T00:26:16.239Z,5.95
2022-11-10T00:28:43.431Z,7.53
2022-11-10T00:31:10.823Z,5.75
2022-11-10T00:33:42.872Z,8.18
2022-11-10T00:36:10.262Z,6.43
2022-11-10T00:38:36.885Z,10.32
2022-11-10T00:41:04.072Z,9.27
2022-11-10T00:43:31.700Z,7.90
2022-11-10T00:45:58.752Z,7.05
2022-11-10T00:48:25.702Z,5.97
2022-11-10T00:50:52.624Z,11.30
2022-11-10T00:53:19.689Z,8.55
2022-11-10T00:55:46.640Z,7.70
2022-11-10T00:58:13.399Z,12.02
2022-11-10T01:00:40.589Z,7.95
2022-11-10T01:03:07.787Z,12.30
2022-11-10T01:05:38.132Z,11.25
2022-11-10T01:08:05.437Z,7.95
2022-11-10T01:10:32.103Z,13.57
2022-11-10T01:12:58.933Z,10.38
2022-11-10T01:15:27.921Z,8.93
2022-11-10T01:17:56.303Z,8.48
2022-11-10T01:20:23.978Z,12.00
2022-11-10T01:22:50.868Z,13.13
2022-11-10T01:25:17.577Z,10.27
2022-11-10T01:27:44.301Z,10.85
2022-11-10T01:30:11.455Z,10.48
2022-11-10T01:32:38.107Z,14.57
2022-11-10T01:35:05.333Z,11.40
2022-11-10T01:37:32.134Z,16.25
2022-11-10T01:39:58.837Z,11.07
2022-11-10T01:42:27.995Z,11.73
2022-11-10T01:45:22.951Z,12.63
2022-11-10T01:48:04.976Z,11.60
2022-11-10T01:50:36.412Z,14.38
2022-11-10T01:53:06.929Z,16.33
2022-11-10T01:55:35.542Z,15.27
2022-11-10T01:58:02.367Z,15.15
2022-11-10T02:00:29.202Z,13.98
2022-11-10T02:03:11.652Z,15.82
2022-11-10T02:05:38.456Z,14.77
2022-11-10T02:08:06.015Z,14.77
2022-11-10T02:10:32.745Z,15.23
2022-11-10T02:12:59.482Z,16.15
2022-11-10T02:15:26.328Z,13.82
2022-11-10T02:17:52.969Z,17.83
2022-11-10T02:20:21.085Z,13.18
2022-11-10T02:22:47.782Z,15.57
2022-11-10T02:25:18.710Z,13.85
2022-11-10T02:27:45.357Z,16.15
2022-11-10T02:30:12.585Z,13.95
2022-11-10T02:32:39.335Z,18.80
2022-11-10T02:35:06.752Z,19.10
2022-11-10T02:37:33.367Z,16.73
2022-11-10T02:39:59.987Z,18.17
2022-11-10T02:42:26.958Z,16.05
2022-11-10T02:44:53.724Z,18.48
2022-11-10T02:47:20.371Z,13.57
2022-11-10T02:49:47.378Z,16.50
2022-11-10T02:52:14.080Z,18.10
2022-11-10T02:54:40.738Z,21.40
2022-11-10T02:57:07.468Z,16.98
2022-11-10T02:59:34.202Z,22.65
2022-11-10T03:02:00.777Z,18.30
2022-11-10T03:04:27.415Z,22.42
2022-11-10T03:06:54.079Z,23.30
2022-11-10T03:09:20.797Z,21.60
2022-11-10T03:11:47.396Z,20.45
2022-11-10T03:14:14.022Z,20.48
2022-11-10T03:16:40.610Z,24.75
2022-11-10T03:19:07.354Z,21.60
2022-11-10T03:21:33.970Z,20.95
2022-11-10T03:24:00.728Z,23.60
2022-11-10T03:26:27.355Z,20.85
2022-11-10T03:28:54.023Z,23.92
2022-11-10T03:31:20.692Z,25.20
2022-11-10T03:33:47.403Z,20.17
2022-11-10T03:36:13.999Z,21.63
2022-11-10T03:38:40.646Z,20.10
2022-11-10T03:41:22.567Z,23.65
2022-11-10T03:43:50.142Z,25.75
2022-11-10T03:46:17.727Z,27.13
2022-11-10T03:48:50.174Z,20.92
2022-11-10T03:51:20.020Z,24.65
2022-11-10T03:53:46.662Z,25.35
2022-11-10T03:56:13.288Z,21.10
2022-11-10T03:58:40.731Z,18.15
2022-11-10T04:01:07.590Z,24.77
2022-11-10T04:03:34.439Z,21.23
2022-11-10T04:06:19.499Z,23.35
2022-11-10T04:09:01.339Z,24.70
2022-11-10T04:11:55.965Z,23.58
2022-11-10T04:14:41.421Z,21.75
2022-11-10T04:17:09.605Z,22.70
2022-11-10T04:19:36.263Z,25.13
2022-11-10T04:22:02.975Z,20.45
2022-11-10T04:24:29.763Z,17.35
2022-11-10T04:26:56.489Z,27.70
2022-11-10T04:29:23.249Z,22.50
2022-11-10T04:31:49.804Z,21.02
2022-11-10T04:34:16.508Z,22.20
2022-11-10T04:36:43.988Z,23.33
2022-11-10T04:39:11.167Z,21.75
2022-11-10T04:41:38.179Z,27.38
2022-11-10T04:44:05.233Z,25.33
2022-11-10T04:46:31.781Z,22.60
2022-11-10T04:48:58.707Z,23.58
2022-11-10T04:51:32.683Z,21.23
2022-11-10T04:54:00.124Z,23.80
2022-11-10T04:56:27.540Z,23.08
2022-11-10T04:58:55.082Z,24.70
2022-11-10T05:01:24.864Z,26.25
2022-11-10T05:03:52.819Z,23.20
2022-11-10T05:06:19.813Z,23.85
2022-11-10T05:08:47.525Z,29.00
2022-11-10T05:11:15.176Z,22.63
2022-11-10T05:13:42.928Z,20.35
2022-11-10T05:16:09.628Z,21.70
2022-11-10T05:18:37.573Z,19.92
2022-11-10T05:21:04.428Z,22.75
2022-11-10T05:23:40.325Z,26.70
2022-11-10T05:26:13.459Z,18.40
2022-11-10T05:28:41.838Z,23.80
2022-11-10T05:31:09.267Z,24.15
2022-11-10T05:33:37.753Z,25.50
2022-11-10T05:36:05.467Z,32.30
2022-11-10T05:38:32.501Z,24.13
2022-11-10T05:40:59.124Z,20.27
2022-11-10T05:43:26.543Z,23.83
2022-11-10T05:45:53.799Z,21.55
2022-11-10T05:48:20.668Z,25.98
2022-11-10T05:50:47.356Z,26.67
2022-11-10T05:53:14.330Z,31.95
2022-11-10T05:55:40.991Z,25.10
2022-11-10T05:58:08.250Z,34.40
2022-11-10T06:00:35.512Z,27.80
2022-11-10T06:03:14.079Z,28.42
2022-11-10T06:05:40.998Z,27.70
2022-11-10T06:08:07.875Z,29.77
2022-11-10T06:10:35.982Z,31.92
2022-11-10T06:13:02.889Z,32.95
2022-11-10T06:15:30.302Z,29.50
2022-11-10T06:17:57.744Z,33.83
2022-11-10T06:20:24.960Z,37.50
2022-11-10T06:23:03.939Z,31.52
2022-11-10T06:25:32.353Z,35.28
2022-11-10T06:27:59.648Z,34.38
2022-11-10T06:30:28.185Z,35.13
2022-11-10T06:32:55.349Z,35.63
2022-11-10T06:35:22.960Z,37.33
2022-11-10T06:38:03.729Z,41.22
2022-11-10T06:40:31.416Z,39.17
2022-11-10T06:42:58.787Z,35.70
2022-11-10T06:45:28.274Z,40.50
2022-11-10T06:48:04.986Z,35.60
2022-11-10T06:50:31.812Z,35.58
2022-11-10T06:52:59.447Z,37.05
2022-11-10T06:55:26.760Z,35.95
2022-11-10T06:57:54.321Z,39.53
2022-11-10T07:00:21.606Z,42.63
2022-11-10T07:02:48.273Z,36.90
2022-11-10T07:05:15.469Z,42.80
2022-11-10T07:07:42.866Z,39.67
2022-11-10T07:10:09.833Z,37.42
2022-11-10T07:12:36.510Z,36.30
2022-11-10T07:15:03.867Z,39.70
2022-11-10T07:17:31.432Z,36.88
2022-11-10T07:19:58.123Z,33.95
2022-11-10T07:22:25.095Z,37.13
2022-11-10T07:24:51.834Z,35.38
2022-11-10T07:27:19.363Z,32.55
2022-11-10T07:29:46.017Z,38.25
2022-11-10T07:32:12.644Z,41.70
2022-11-10T07:34:39.294Z,34.47
2022-11-10T07:37:06.026Z,35.38
2022-11-10T07:39:32.624Z,32.88
2022-11-10T07:41:59.443Z,33.25
2022-11-10T07:44:27.743Z,31.23
2022-11-10T07:46:54.521Z,32.60
2022-11-10T07:49:21.436Z,30.50
2022-11-10T07:51:48.060Z,31.38
2022-11-10T07:54:14.850Z,31.13
2022-11-10T07:56:42.384Z,28.98
2022-11-10T07:59:09.195Z,27.88
2022-11-10T08:01:36.153Z,33.08
2022-11-10T08:04:03.158Z,24.60
2022-11-10T08:06:35.811Z,28.05
2022-11-10T08:09:02.848Z,24.92
2022-11-10T08:11:29.478Z,25.92
2022-11-10T08:13:56.672Z,29.83
2022-11-10T08:16:23.349Z,29.58
2022-11-10T08:18:50.260Z,23.27
2022-11-10T08:21:16.861Z,23.88
2022-11-10T08:23:43.536Z,22.33
2022-11-10T08:26:10.249Z,24.05
2022-11-10T08:28:36.876Z,25.50
2022-11-10T08:31:05.740Z,34.00
2022-11-10T08:33:33.022Z,22.08
2022-11-10T08:36:01.713Z,26.25
2022-11-10T08:38:28.445Z,22.02
2022-11-10T08:40:57.124Z,22.90
2022-11-10T08:43:24.427Z,21.67
2022-11-10T08:45:55.034Z,23.10
2022-11-10T08:48:21.793Z,21.00
2022-11-10T08:50:49.916Z,17.73
2022-11-10T08:53:20.539Z,21.90
2022-11-10T08:55:48.114Z,15.63
2022-11-10T08:58:17.476Z,19.85
2022-11-10T09:00:44.728Z,17.88
2022-11-10T09:03:18.636Z,19.75
2022-11-10T09:05:46.013Z,14.80
2022-11-10T09:08:12.941Z,17.08
2022-11-10T09:10:48.007Z,17.67
2022-11-10T09:13:16.784Z,20.13
2022-11-10T09:15:44.795Z,17.30
2022-11-10T09:18:13.878Z,14.68
2022-11-10T09:20:40.981Z,17.58
2022-11-10T09:23:09.852Z,16.52
2022-11-10T09:25:37.028Z,17.15
2022-11-10T09:28:04.415Z,17.50
2022-11-10T09:30:32.270Z,16.45
2022-11-10T09:33:00.580Z,14.10
2022-11-10T09:35:28.160Z,16.05
2022-11-10T09:37:54.883Z,12.63
2022-11-10T09:40:43.848Z,11.30
2022-11-10T09:43:19.367Z,11.35
2022-11-10T09:45:50.433Z,8.88
2022-11-10T09:48:29.551Z,10.35
2022-11-10T09:51:04.675Z,10.85
2022-11-10T09:53:44.813Z,7.72
2022-11-10T09:56:22.972Z,11.80
2022-11-10T09:58:51.298Z,9.30
2022-11-10T10:01:46.515Z,12.13
2022-11-10T10:04:44.735Z,12.73
2022-11-10T10:07:22.690Z,12.32
2022-11-10T10:09:55.826Z,10.60
2022-11-10T10:12:49.859Z,10.43
2022-11-10T10:15:25.518Z,10.73
2022-11-10T10:18:13.308Z,12.40
2022-11-10T10:21:01.187Z,12.57
2022-11-10T10:24:12.773Z,13.63
2022-11-10T10:26:33.342Z,10.80
2022-11-10T10:29:09.256Z,13.15
2022-11-10T10:31:43.851Z,10.85
2022-11-10T10:34:16.315Z,10.95
2022-11-10T10:36:44.380Z,12.40
2022-11-10T10:39:44.945Z,11.73
2022-11-10T10:42:31.045Z,15.40
2022-11-10T10:45:18.644Z,11.18
2022-11-10T10:47:48.239Z,11.20
2022-11-10T10:50:23.327Z,12.35
2022-11-10T10:53:06.066Z,9.25
2022-11-10T10:55:34.597Z,8.90
2022-11-10T10:58:22.746Z,9.80
2022-11-10T11:00:56.480Z,9.90
2022-11-10T11:03:30.796Z,9.32
2022-11-10T11:06:31.185Z,10.30
2022-11-10T11:09:00.127Z,8.90
2022-11-10T11:11:32.764Z,8.93
2022-11-10T11:14:19.812Z,9.98
2022-11-10T11:17:02.804Z,7.90
2022-11-10T11:19:40.927Z,6.97
2022-11-10T11:22:31.943Z,10.45
2022-11-10T11:25:27.922Z,6.15
2022-11-10T11:28:47.053Z,7.93
2022-11-10T11:31:24.812Z,10.80
2022-11-10T11:34:08.704Z,9.70
2022-11-10T11:37:05.358Z,7.80
2022-11-10T11:39:58.558Z,9.77
2022-11-10T11:42:46.949Z,10.88
2022-11-10T11:45:44.764Z,10.35
2022-11-10T11:48:22.639Z,12.52
2022-11-10T11:51:34.370Z,10.27
2022-11-10T11:54:19.081Z,13.52
2022-11-10T11:56:53.998Z,10.95
2022-11-10T11:59:28.709Z,9.05
2022-11-10T12:02:28.895Z,9.70
2022-11-10T12:05:23.668Z,9.93
2022-11-10T12:08:28.274Z,9.13
2022-11-10T12:11:08.141Z,7.38
2022-11-10T12:16:43.784Z,9.00
2022-11-10T12:19:16.416Z,11.90
2022-11-10T12:22:11.126Z,9.38
2022-11-10T12:25:05.800Z,8.98
2022-11-10T12:30:24.814Z,11.63
2022-11-10T12:33:03.639Z,10.27
2022-11-10T12:35:38.602Z,8.10
2022-11-10T12:38:49.043Z,12.35
2022-11-10T12:41:26.572Z,8.35
2022-11-10T12:44:27.996Z,8.18
2022-11-10T12:47:00.175Z,12.15
2022-11-10T12:49:48.608Z,10.57
2022-11-10T12:52:21.800Z,11.32
2022-11-10T12:54:52.680Z,9.68
2022-11-10T12:57:32.678Z,13.68
2022-11-10T13:00:04.412Z,6.85
2022-11-10T13:02:42.017Z,10.70
2022-11-10T13:05:15.523Z,10.95
2022-11-10T13:07:51.861Z,12.25
2022-11-10T13:10:18.653Z,8.07
2022-11-10T13:13:05.837Z,8.02
2022-11-10T13:15:35.859Z,9.45
2022-11-10T13:18:11.776Z,8.55
2022-11-10T13:20:41.786Z,14.10
2022-11-10T13:23:28.560Z,8.35
2022-11-10T13:26:00.151Z,8.98
2022-11-10T13:28:48.107Z,9.30
2022-11-10T13:31:27.400Z,7.72
2022-11-10T13:34:27.183Z,9.38
2022-11-10T13:36:54.145Z,9.85
2022-11-10T13:39:29.514Z,10.20
2022-11-10T13:44:51.265Z,7.05
2022-11-10T13:47:36.112Z,10.48
2022-11-10T13:50:50.929Z,6.82
2022-11-10T13:53:17.686Z,8.93
2022-11-10T13:55:53.306Z,8.95
2022-11-10T13:58:30.899Z,11.32
2022-11-10T14:01:30.761Z,9.15
2022-11-10T14:04:07.649Z,9.55
2022-11-10T14:06:37.233Z,8.45
2022-11-10T14:09:33.474Z,6.60
2022-11-10T14:12:05.623Z,9.48
2022-11-10T14:15:01.858Z,7.53
2022-11-10T14:17:47.428Z,7.55
2022-11-10T14:20:30.487Z,7.95
2022-11-10T14:22:58.058Z,10.05
2022-11-10T14:28:37.021Z,10.73
2022-11-10T14:31:04.349Z,16.05
2022-11-10T14:33:31.228Z,10.23
2022-11-10T14:36:01.528Z,10.02
2022-11-10T14:38:39.918Z,15.20
2022-11-10T14:41:21.458Z,10.60
2022-11-10T14:44:06.755Z,9.93
2022-11-10T14:46:33.584Z,10.52
2022-11-10T14:49:00.402Z,11.50
2022-11-10T14:51:31.158Z,8.68
2022-11-10T14:53:58.468Z,12.15
2022-11-10T14:56:37.173Z,9.32
2022-11-10T14:59:07.294Z,10.70
2022-11-10T15:01:37.241Z,8.65
2022-11-10T15:04:06.493Z,12.18
2022-11-10T15:06:46.640Z,11.02
2022-11-10T15:09:16.957Z,12.20
2022-11-10T15:12:09.931Z,11.15
2022-11-10T15:14:39.850Z,8.93
2022-11-10T15:17:14.604Z,11.35
2022-11-10T15:19:51.689Z,7.50
2022-11-10T15:22:19.735Z,9.93
2022-11-10T15:24:48.630Z,8.75
2022-11-10T15:27:29.439Z,7.53
2022-11-10T15:30:01.777Z,9.48
2022-11-10T15:32:49.288Z,9.75
2022-11-10T15:35:25.249Z,9.10
2022-11-10T15:38:05.596Z,13.70
2022-11-10T15:40:50.398Z,11.88
2022-11-10T15:43:22.012Z,9.40
2022-11-10T15:46:00.235Z,10.77
2022-11-10T15:48:37.891Z,9.35
2022-11-10T15:51:05.167Z,8.20
2022-11-10T15:53:35.993Z,11.38
2022-11-10T15:56:02.674Z,8.65
2022-11-10T15:58:29.309Z,7.00
2022-11-10T16:00:56.170Z,7.70
2022-11-10T16:03:24.063Z,8.43
2022-11-10T16:05:50.914Z,7.53
2022-11-10T16:08:23.029Z,9.90
2022-11-10T16:10:53.528Z,9.63
2022-11-10T16:13:34.613Z,5.47
2022-11-10T16:16:01.395Z,7.65
2022-11-10T16:18:30.435Z,11.32
2022-11-10T16:20:57.666Z,12.73
2022-11-10T16:23:26.305Z,11.27
2022-11-10T16:25:56.017Z,7.65
2022-11-10T16:28:26.482Z,12.18
2022-11-10T16:30:55.198Z,8.55
2022-11-10T16:33:24.933Z,9.60
2022-11-10T16:35:54.540Z,11.50
2022-11-10T16:38:33.151Z,7.53
2022-11-10T16:43:44.979Z,6.80
2022-11-10T16:46:22.033Z,9.05
2022-11-10T16:48:51.587Z,7.78
2022-11-10T16:51:18.492Z,13.10
2022-11-10T16:53:45.736Z,14.25
2022-11-10T16:56:17.202Z,9.63
2022-11-10T16:58:44.331Z,14.40
2022-11-10T17:01:21.258Z,44.85
2022-11-10T17:03:51.344Z,11.77
2022-11-10T17:06:19.060Z,7.75
2022-11-10T17:08:48.651Z,7.60
2022-11-10T17:11:16.376Z,9.05
2022-11-10T17:13:43.119Z,6.43
2022-11-10T17:16:27.049Z,8.48
2022-11-10T17:18:55.488Z,10.55
2022-11-10T17:21:23.902Z,6.90
2022-11-10T17:23:53.002Z,10.52
2022-11-10T17:26:21.179Z,7.60
2022-11-10T17:28:48.010Z,10.38
2022-11-10T17:31:15.736Z,9.38
2022-11-10T17:33:42.450Z,11.10
2022-11-10T17:36:19.474Z,14.10
2022-11-10T17:38:46.553Z,9.13
2022-11-10T17:41:17.980Z,4.93
2022-11-10T17:43:46.197Z,5.93
2022-11-10T17:46:14.128Z,8.25
2022-11-10T17:48:41.195Z,5.03
2022-11-10T17:51:19.802Z,8.40
2022-11-10T17:53:46.866Z,7.90
2022-11-10T17:56:13.907Z,6.85
2022-11-10T17:58:40.594Z,7.10
2022-11-10T18:01:19.593Z,8.93
2022-11-10T18:03:46.791Z,5.70
2022-11-10T18:06:18.257Z,6.60
2022-11-10T18:08:45.441Z,5.28
2022-11-10T18:11:23.428Z,5.25
2022-11-10T18:13:50.386Z,6.90
2022-11-10T18:16:17.433Z,6.53
2022-11-10T18:18:44.585Z,9.90
2022-11-10T18:21:12.445Z,8.00
2022-11-10T18:23:39.804Z,9.43
2022-11-10T18:26:08.610Z,8.38
2022-11-10T18:28:36.053Z,7.05
2022-11-10T18:31:08.016Z,9.15
2022-11-10T18:33:35.270Z,7.38
2022-11-10T18:36:02.536Z,10.52
2022-11-10T18:38:30.091Z,13.25
2022-11-10T18:41:17.089Z,9.48
2022-11-10T18:43:44.137Z,10.00
2022-11-10T18:46:11.597Z,9.05
2022-11-10T18:48:39.053Z,8.77
2022-11-10T18:51:06.719Z,8.05
2022-11-10T18:53:38.084Z,8.48
2022-11-10T18:56:06.145Z,7.53
2022-11-10T18:58:33.380Z,10.55
2022-11-10T19:01:08.540Z,5.85
2022-11-10T19:03:36.697Z,7.28
2022-11-10T19:06:04.662Z,8.65
2022-11-10T19:08:31.936Z,7.20
2022-11-10T19:10:59.068Z,5.18
2022-11-10T19:13:26.373Z,4.03
2022-11-10T19:15:55.704Z,7.72
2022-11-10T19:18:22.440Z,8.82
2022-11-10T19:20:49.212Z,6.63
2022-11-10T19:23:16.274Z,4.28
2022-11-10T19:25:43.020Z,7.35
2022-11-10T19:28:11.650Z,8.77
2022-11-10T19:30:39.290Z,6.15
2022-11-10T19:33:06.216Z,9.55
2022-11-10T19:35:34.391Z,5.72
2022-11-10T19:38:03.994Z,4.03
2022-11-10T19:40:30.845Z,7.25
2022-11-10T19:42:57.790Z,4.78
2022-11-10T19:45:24.410Z,5.22
2022-11-10T19:47:51.266Z,6.95
2022-11-10T19:50:18.162Z,7.93
2022-11-10T19:52:44.859Z,5.78
2022-11-10T19:55:11.629Z,4.57
2022-11-10T19:57:38.400Z,7.28
2022-11-10T20:00:09.530Z,5.13
2022-11-10T20:02:44.275Z,8.40
2022-11-10T20:11:38.754Z,7.50
2022-11-10T20:14:07.166Z,6.10
2022-11-10T20:16:34.756Z,6.63
2022-11-10T20:22:08.115Z,5.72
2022-11-10T20:24:36.172Z,5.57
2022-11-10T20:27:02.892Z,5.28
2022-11-10T20:29:31.880Z,4.13
2022-11-10T20:31:58.458Z,7.28
2022-11-10T20:34:25.075Z,5.43
2022-11-10T20:36:54.927Z,7.88
2022-11-10T20:39:21.868Z,7.75
2022-11-10T20:41:50.667Z,6.68
2022-11-10T20:44:17.356Z,13.63
2022-11-10T20:46:59.388Z,7.47
2022-11-10T20:49:25.980Z,7.65
2022-11-10T20:51:52.621Z,7.93
2022-11-10T20:54:19.254Z,5.85
2022-11-10T20:56:46.208Z,10.15
2022-11-10T20:59:12.905Z,6.18
2022-11-10T21:01:40.162Z,12.63
2022-11-10T21:04:07.003Z,5.80
2022-11-10T21:06:34.082Z,8.32
2022-11-10T21:09:00.995Z,7.63
2022-11-10T21:11:46.177Z,8.25
2022-11-10T21:14:13.007Z,10.07
2022-11-10T21:16:39.984Z,6.82
2022-11-10T21:19:07.113Z,6.97
2022-11-10T21:21:36.636Z,5.47
2022-11-10T21:24:05.294Z,6.07
2022-11-10T21:26:34.323Z,4.93
2022-11-10T21:29:29.089Z,7.28
2022-11-10T21:31:56.644Z,7.13
2022-11-10T21:34:23.487Z,5.82
2022-11-10T21:36:50.343Z,4.55
2022-11-10T21:39:17.173Z,10.15
2022-11-10T21:41:44.426Z,6.93
2022-11-10T21:44:11.271Z,7.50
2022-11-10T21:46:38.222Z,6.18
2022-11-10T21:49:07.800Z,5.15
2022-11-10T21:51:34.835Z,7.95
2022-11-10T21:54:02.184Z,6.38
2022-11-10T21:56:28.830Z,4.65
2022-11-10T21:58:55.430Z,6.65
2022-11-10T22:01:22.340Z,7.03
2022-11-10T22:03:49.012Z,5.03
2022-11-10T22:06:17.603Z,5.80
2022-11-10T22:08:46.016Z,7.15
2022-11-10T22:11:37.422Z,4.03
2022-11-10T22:14:30.370Z,5.72
2022-11-10T22:17:16.102Z,5.68
2022-11-10T22:19:44.395Z,6.07
2022-11-10T22:22:14.153Z,6.38
2022-11-10T22:24:41.248Z,7.13
2022-11-10T22:27:08.196Z,5.70
2022-11-10T22:29:34.887Z,5.72
2022-11-10T22:32:02.338Z,5.28
2022-11-10T22:34:29.277Z,5.40
2022-11-10T22:36:56.570Z,4.97
2022-11-10T22:39:23.571Z,3.90
2022-11-10T22:42:09.527Z,4.20
2022-11-10T22:44:36.452Z,3.63
2022-11-10T22:47:03.141Z,4.93
2022-11-10T22:49:29.788Z,6.50
2022-11-10T22:51:57.150Z,7.75
2022-11-10T22:54:24.371Z,7.40
2022-11-10T22:56:51.591Z,4.18
2022-11-10T22:59:19.116Z,4.68
2022-11-10T23:01:46.048Z,7.72
2022-11-10T23:04:15.756Z,6.25
2022-11-10T23:06:43.746Z,6.70
2022-11-10T23:09:10.495Z,7.80
2022-11-10T23:11:37.381Z,3.78
2022-11-10T23:14:04.134Z,7.13
2022-11-10T23:16:34.014Z,8.43
2022-11-10T23:19:01.325Z,5.85
2022-11-10T23:21:29.837Z,9.20
2022-11-10T23:23:56.554Z,7.57
2022-11-10T23:26:26.002Z,4.55
2022-11-10T23:28:53.266Z,8.82
2022-11-10T23:31:25.811Z,5.80
2022-11-10T23:33:54.449Z,4.53
2022-11-10T23:36:22.779Z,5.53
2022-11-10T23:38:50.026Z,7.63
2022-11-10T23:41:18.925Z,8.43
2022-11-10T23:43:46.110Z,6.88
2022-11-10T23:46:22.852Z,6.50
2022-11-10T23:48:49.617Z,5.22
2022-11-10T23:51:16.675Z,6.80
2022-11-10T23:53:43.663Z,6.50
2022-11-10T23:56:14.151Z,7.65
2022-11-10T23:58:41.306Z,6.63
